NCAR-RAP Real-Time Weather Data

Output produced by METARs form (23 June 2018  19:35 UTC)
found at http://weather.rap.ucar.edu/surface/
 
RJCK 231100Z 22011KT 9999 FEW030 BKN140 BKN/// 19/12 Q0999
RJCK 231000Z 22013KT 9999 FEW030 SCT160 BKN/// 19/11 Q0999
RJCK 230900Z 22014KT 9999 FEW040 SCT160 BKN/// 20/11 Q0998
RJCK 230800Z 19014KT 9999 FEW040 SCT160 BKN/// 20/11 Q0998
RJCK 230700Z 19014KT 9999 FEW030 BKN160 21/12 Q0997
RJCK 230600Z 20014KT 9999 FEW030 SCT150 21/11 Q0997
RJCK 230500Z 19014KT 9999 FEW040 BKN160 21/12 Q0998
RJCK 230400Z 21015KT 9999 FEW040 BKN150 19/12 Q0998
RJCK 230300Z 19013KT 9999 FEW040 SCT120 23/13 Q0998
RJCK 230200Z 19014KT 9999 FEW040 SCT120 21/12 Q0999
RJCK 230100Z 20013KT 170V230 9999 FEW030 21/13 Q0999
RJCK 230000Z 18012KT 9999 FEW030 20/13 Q1000
RJCK 222300Z 18010KT 9999 FEW025 SCT/// 18/13 Q1001
RJCK 222200Z 19008KT 9999 FEW025 SCT/// 19/13 Q1001
RJCK 222145Z 18008KT 9999 FEW025 SCT/// 17/12 Q1001 RMK 1CU025 A2957
RJCK 221100Z 21008KT 9999 FEW040 BKN/// 16/13 Q0999
RJCK 221000Z 20008KT 9999 FEW040 BKN/// 16/13 Q0998
RJCK 220900Z 25009KT 220V280 9999 FEW030 BKN/// 18/14 Q0998
RJCK 220800Z 25010KT 220V280 9999 FEW030 22/13 Q0997
RJCK 220700Z 24012KT 9999 FEW030 SCT050 19/13 Q0997
RJCK 220600Z 26009KT 220V300 9999 FEW030 SCT050 23/14 Q0997
RJCK 220500Z 27013KT 230V300 9999 FEW020 SCT040 23/12 Q0997
RJCK 220400Z 25010G20KT 170V330 9999 FEW020 SCT040 BKN150 22/15 Q0997
RJCK 220300Z 23013KT 9999 FEW020 SCT040 BKN150 21/13 Q0997
RJCK 220200Z 21012KT 9999 FEW020 SCT040 20/14 Q0997
RJCK 220100Z 20009KT 170V230 9999 FEW020 SCT040 19/14 Q0998
RJCK 220000Z 19012KT 9999 FEW020 SCT035 18/16 Q0998
RJCK 212300Z 20003KT 160V240 9999 PRFG FEW001 16/16 Q0998
RJCK 212225Z VRB02KT 5000 BCFG BR FEW001 SCT010 14/14 Q0998 RMK 1ST001 4ST010 A2948
RJCK 212220Z VRB02KT 4000 BCFG BR FEW001 SCT006 BKN010 13/13 Q0998 RMK 1ST001 4ST006 5ST010 A2948
RJCK 212214Z 17003KT 130V210 3200 BCFG BR FEW001 SCT005 BKN006 13/13 Q0998 RMK 1ST001 4ST005 6ST006 A2948
RJCK 212210Z VRB02KT 3000 R35/P2000N BCFG BR FEW001 SCT004 BKN005 13/13 Q0998 RMK 1ST001 4ST004 6ST005 A2949
RJCK 212207Z VRB01KT 2400 R17/P2000N BCFG BR FEW001 SCT003 BKN004 13/13 Q0998 RMK 1ST001 4ST003 6ST004 A2949
RJCK 212204Z VRB02KT 1600 R17/P2000N BCFG BR FEW001 SCT002 BKN003 13/13 Q0998 RMK 2ST001 4ST002 6ST003 A2948
RJCK 212200Z 24003KT 200V330 1500 R17/0450VP2000U BCFG BR SCT001 BKN002 BKN003 12/12 Q0998
RJCK 212145Z 21005KT 0300 R17/0300N FG BKN001 BKN002 11/11 Q0998 RMK 5ST001 6ST002 A2949
RJCK 211140Z 20005KT 0300 R35/0500N FG VV001 11/11 Q0999 RMK A2952
RJCK 211131Z 22004KT 0300 R17/0800V1100N FG VV001 11/11 Q1000 RMK A2953
RJCK 211120Z 22004KT 170V240 0400 R17/0700VP2000U FG VV001 11/11 Q1000 RMK A2953
RJCK 211115Z 20004KT 0300 R17/0700V1600U FG VV001 11/11 Q1000 RMK A2953
RJCK 211111Z 20005KT 0300 R17/0700V1000D FG VV001 11/11 Q1000 RMK A2953
RJCK 211100Z 20005KT 0300 R17/0900N FG VV001 11/11 Q0999
RJCK 211030Z 21005KT 0300 R17/0750V1100U FG VV001 11/11 Q0999 RMK A2952
RJCK 211007Z 20007KT 0300 R17/0800N FG VV001 11/11 Q0999 RMK A2952
RJCK 211004Z 20008KT 0300 R17/0750N FG VV001 11/11 Q0999 RMK A2952
RJCK 211000Z 20008KT 0300 R17/0700V1200N FG VV001 11/11 Q0999
RJCK 210947Z 20009KT 0300 R17/0800N FG VV001 11/11 Q0999 RMK A2953
RJCK 210900Z 20008KT 0300 R17/0550V0900D FG VV001 11/11 Q1000
RJCK 210845Z 21008KT 0300 R17/0600V1100D FG VV001 11/11 Q1000 RMK A2953
RJCK 210836Z 20006KT 0300 R17/0800V1300D FG VV001 11/11 Q0999 RMK A2953
RJCK 210831Z 20006KT 0300 R17/0800V1300D FG VV001 11/11 Q0999 RMK A2952
RJCK 210824Z 20006KT 0500 R17/0900V1900U FG VV001 11/11 Q0999 RMK A2952
RJCK 210820Z 20006KT 0500 R17/0750V1900U FG VV001 11/11 Q0999 RMK A2952
RJCK 210814Z 21006KT 0400 R17/0650V1000U FG VV001 11/11 Q1000 RMK A2953
RJCK 210800Z 21007KT 0300 R17/0600V0900D FG VV001 11/11 Q1000